Wray, Georgia
Current Conditions -  °F | °C
As of 10:35 AM on Monday 22 Dec 2014 (Local Time) from KFZG Reporting Station
Thunderstorm Thunderstorm  
Wind Chill: 51°   Ceiling: 300
Heat Index: 51°   Visibility: 2mi
Dew Point: 49°   Wind: 3mph
Humidity: 92%   Direction: 70°ENE
Pressure: 30.02"   Gusts: NA
Location:  31.62°N, 83.05°W
Report Text: KFZG 221535Z AUTO 07003KT 2SM VCTSRA BKN003 BKN021 OVC055 11/09 A3002 RMK AO2 LTG DSNT ALQS T01050092
Loading
Personal Weather Stations






























Interactive Weather Map New forecast layout! Learn more

10-Day Weather Forecast

Advertisements
Track Severe Weather on mobile